createdAt,value
2023-06-04T00:01:24.799Z,96930.38
2023-06-04T00:03:51.487Z,96922.97
2023-06-04T00:06:18.154Z,96925.75
2023-06-04T00:08:44.704Z,96926.41
2023-06-04T00:11:11.312Z,96920.09
2023-06-04T00:13:37.952Z,96906.31
2023-06-04T00:16:05.513Z,96904.19
2023-06-04T00:18:32.040Z,96903.44
2023-06-04T00:20:58.819Z,96907.78
2023-06-04T00:23:25.384Z,96909.69
2023-06-04T00:25:51.943Z,96906.00
2023-06-04T00:28:18.408Z,96904.75
2023-06-04T00:30:44.949Z,96907.19
2023-06-04T00:33:11.412Z,96904.56
2023-06-04T00:35:38.135Z,96908.28
2023-06-04T00:38:04.616Z,96908.34
2023-06-04T00:40:31.160Z,96913.16
2023-06-04T00:42:57.616Z,96911.56
2023-06-04T00:45:27.327Z,96916.88
2023-06-04T00:47:54.235Z,96919.00
2023-06-04T00:50:22.106Z,96914.53
2023-06-04T00:52:50.878Z,96924.94
2023-06-04T00:55:19.697Z,96924.97
2023-06-04T00:57:46.267Z,96917.00
2023-06-04T01:00:13.766Z,96925.56
2023-06-04T01:02:42.109Z,96917.06
2023-06-04T01:05:33.690Z,96931.97
2023-06-04T01:08:02.375Z,96923.75
2023-06-04T01:10:29.069Z,96924.03
2023-06-04T01:12:55.574Z,96921.16
2023-06-04T01:15:22.179Z,96926.75
2023-06-04T01:17:52.741Z,96922.28
2023-06-04T01:20:28.637Z,96925.47
2023-06-04T01:22:55.503Z,96927.34
2023-06-04T01:25:26.992Z,96932.09
2023-06-04T01:27:58.142Z,96933.44
2023-06-04T01:30:31.536Z,96930.00
2023-06-04T01:32:59.955Z,96932.13
2023-06-04T01:35:29.280Z,96929.47
2023-06-04T01:37:56.894Z,96928.69
2023-06-04T01:40:26.752Z,96921.22
2023-06-04T01:42:53.925Z,96921.50
2023-06-04T01:45:22.758Z,96917.00
2023-06-04T01:47:49.383Z,96925.22
2023-06-04T01:50:16.002Z,96928.94
2023-06-04T01:52:42.518Z,96927.91
2023-06-04T01:55:13.225Z,96924.69
2023-06-04T01:57:41.607Z,96919.38
2023-06-04T02:00:11.252Z,96917.78
2023-06-04T02:02:38.619Z,96919.38
2023-06-04T02:05:09.234Z,96916.72
2023-06-04T02:07:39.385Z,96918.88
2023-06-04T02:10:09.989Z,96919.66
2023-06-04T02:12:41.329Z,96913.53
2023-06-04T02:15:10.670Z,96920.72
2023-06-04T02:17:43.831Z,96917.22
2023-06-04T02:20:10.823Z,96916.72
2023-06-04T02:22:37.432Z,96917.78
2023-06-04T02:25:05.008Z,96919.91
2023-06-04T02:27:31.927Z,96920.72
2023-06-04T02:29:58.526Z,96925.47
2023-06-04T02:32:25.123Z,96925.50
2023-06-04T02:34:51.822Z,96925.75
2023-06-04T02:37:18.450Z,96919.94
2023-06-04T02:39:44.935Z,96919.41
2023-06-04T02:42:11.500Z,96925.75
2023-06-04T02:44:37.951Z,96924.72
2023-06-04T02:47:04.798Z,96939.53
2023-06-04T02:49:31.327Z,96930.53
2023-06-04T02:51:57.932Z,96940.03
2023-06-04T02:54:24.396Z,96929.44
2023-06-04T02:56:50.959Z,96930.22
2023-06-04T02:59:17.892Z,96934.91
2023-06-04T03:01:44.478Z,96937.56
2023-06-04T03:04:11.589Z,96932.50
2023-06-04T03:06:41.810Z,96938.34
2023-06-04T03:09:08.440Z,96945.25
2023-06-04T03:11:34.991Z,96956.34
2023-06-04T03:14:01.528Z,96953.94
2023-06-04T03:16:28.091Z,96950.50
2023-06-04T03:18:54.595Z,96955.25
2023-06-04T03:21:21.083Z,96961.59
2023-06-04T03:23:47.766Z,96960.78
2023-06-04T03:26:14.957Z,96966.34
2023-06-04T03:28:41.697Z,96961.84
2023-06-04T03:31:08.434Z,96967.38
2023-06-04T03:33:35.573Z,96962.59
2023-06-04T03:36:03.024Z,96968.13
2023-06-04T03:38:29.604Z,96959.38
2023-06-04T03:40:56.221Z,96971.59
2023-06-04T03:43:23.026Z,96966.28
2023-06-04T03:45:49.532Z,96967.88
2023-06-04T03:48:15.970Z,96976.13
2023-06-04T03:50:42.505Z,96973.72
2023-06-04T03:53:09.115Z,96974.84
2023-06-04T03:55:35.628Z,96973.72
2023-06-04T03:58:02.071Z,96980.06
2023-06-04T04:00:28.713Z,96980.06
2023-06-04T04:02:55.306Z,96969.47
2023-06-04T04:05:21.892Z,96982.22
2023-06-04T04:07:49.155Z,96978.53
2023-06-04T04:10:15.567Z,96978.03
2023-06-04T04:12:42.251Z,96977.28
2023-06-04T04:15:09.589Z,96982.88
2023-06-04T04:17:36.162Z,96978.16
2023-06-04T04:20:05.086Z,96968.38
2023-06-04T04:22:32.425Z,96976.91
2023-06-04T04:24:59.060Z,96986.47
2023-06-04T04:27:25.521Z,96990.44
2023-06-04T04:29:52.076Z,96994.69
2023-06-04T04:32:18.691Z,96997.91
2023-06-04T04:34:53.278Z,96997.44
2023-06-04T04:37:22.218Z,96995.91
2023-06-04T04:39:52.732Z,96996.81
2023-06-04T04:42:20.193Z,96999.25
2023-06-04T04:44:48.977Z,97002.50
2023-06-04T04:47:16.566Z,97009.44
2023-06-04T04:49:43.470Z,97014.16
2023-06-04T04:52:10.051Z,97013.16
2023-06-04T04:54:36.613Z,97012.50
2023-06-04T04:57:13.494Z,97003.13
2023-06-04T04:59:41.007Z,97013.69
2023-06-04T05:02:07.646Z,97014.47
2023-06-04T05:04:34.256Z,97026.53
2023-06-04T05:07:00.953Z,97011.31
2023-06-04T05:09:27.514Z,97023.91
2023-06-04T05:11:53.988Z,97026.31
2023-06-04T05:14:20.592Z,97024.66
2023-06-04T05:16:49.926Z,97032.16
2023-06-04T05:19:20.238Z,97034.09
2023-06-04T05:21:46.742Z,97034.78
2023-06-04T05:24:13.235Z,97038.63
2023-06-04T05:26:40.765Z,97036.78
2023-06-04T05:29:08.614Z,97042.00
2023-06-04T05:31:36.178Z,97040.88
2023-06-04T05:34:05.448Z,97048.94
2023-06-04T05:36:32.698Z,97043.72
2023-06-04T05:39:00.860Z,97045.28
2023-06-04T05:41:28.742Z,97046.28
2023-06-04T05:43:55.530Z,97044.69
2023-06-04T05:46:22.870Z,97045.00
2023-06-04T05:48:49.469Z,97042.28
2023-06-04T05:51:15.990Z,97044.44
2023-06-04T05:53:43.134Z,97051.00
2023-06-04T05:56:09.775Z,97049.25
2023-06-04T05:58:36.209Z,97055.19
2023-06-04T06:01:02.790Z,97050.31
2023-06-04T06:03:29.419Z,97051.00
2023-06-04T06:05:58.165Z,97052.78
2023-06-04T06:08:24.730Z,97053.56
2023-06-04T06:10:51.262Z,97055.34
2023-06-04T06:13:17.843Z,97061.84
2023-06-04T06:15:44.556Z,97057.09
2023-06-04T06:18:11.104Z,97063.00
2023-06-04T06:20:37.550Z,97058.13
2023-06-04T06:23:08.182Z,97058.09
2023-06-04T06:25:34.700Z,97062.22
2023-06-04T06:28:01.378Z,97060.94
2023-06-04T06:30:27.814Z,97071.34
2023-06-04T06:32:56.551Z,97077.09
2023-06-04T06:35:23.524Z,97069.25
2023-06-04T06:37:50.040Z,97064.81
2023-06-04T06:40:16.578Z,97071.34
2023-06-04T06:42:43.234Z,97072.44
2023-06-04T06:45:10.049Z,97071.91
2023-06-04T06:47:36.650Z,97075.66
2023-06-04T06:50:03.317Z,97072.75
2023-06-04T06:52:30.429Z,97077.19
2023-06-04T06:54:58.030Z,97078.47
2023-06-04T06:57:24.671Z,97067.63
2023-06-04T06:59:53.042Z,97074.13
2023-06-04T07:02:19.709Z,97075.78
2023-06-04T07:04:46.187Z,97071.53
2023-06-04T07:07:12.653Z,97079.22
2023-06-04T07:09:39.141Z,97077.28
2023-06-04T07:12:06.162Z,97076.19
2023-06-04T07:14:32.713Z,97079.78
2023-06-04T07:16:59.116Z,97073.28
2023-06-04T07:19:25.653Z,97072.88
2023-06-04T07:21:55.688Z,97074.56
2023-06-04T07:24:22.695Z,97077.81
2023-06-04T07:26:49.630Z,97067.44
2023-06-04T07:29:16.269Z,97076.19
2023-06-04T07:31:42.890Z,97078.66
2023-06-04T07:34:09.356Z,97077.09
2023-06-04T07:36:36.177Z,97073.78
2023-06-04T07:39:02.794Z,97079.66
2023-06-04T07:41:29.270Z,97075.72
2023-06-04T07:43:55.613Z,97072.75
2023-06-04T07:46:22.192Z,97075.59
2023-06-04T07:48:48.665Z,97075.41
2023-06-04T07:51:15.098Z,97067.06
2023-06-04T07:53:43.461Z,97059.31
2023-06-04T07:56:09.914Z,97062.50
2023-06-04T07:58:36.604Z,97055.63
2023-06-04T08:01:03.048Z,97057.81
2023-06-04T08:03:29.660Z,97054.41
2023-06-04T08:05:56.177Z,97059.63
2023-06-04T08:08:22.559Z,97054.59
2023-06-04T08:10:48.920Z,97055.19
2023-06-04T08:13:15.464Z,97052.09
2023-06-04T08:15:42.238Z,97065.28
2023-06-04T08:18:08.670Z,97065.41
2023-06-04T08:20:35.206Z,97060.88
2023-06-04T08:23:01.637Z,97064.28
2023-06-04T08:25:28.092Z,97060.63
2023-06-04T08:27:54.499Z,97050.78
2023-06-04T08:30:20.869Z,97054.09
2023-06-04T08:32:47.350Z,97059.31
2023-06-04T08:35:13.894Z,97059.31
2023-06-04T08:37:40.973Z,97058.59
2023-06-04T08:40:09.905Z,97050.09
2023-06-04T08:42:42.389Z,97052.44
2023-06-04T08:45:14.426Z,97050.13
2023-06-04T08:47:48.879Z,97054.50
2023-06-04T08:50:18.183Z,97058.81
2023-06-04T08:52:46.099Z,97059.06
2023-06-04T08:55:14.894Z,97055.69
2023-06-04T08:57:41.489Z,97060.06
2023-06-04T09:00:09.457Z,97066.94
2023-06-04T09:02:39.331Z,97055.88
2023-06-04T09:05:11.297Z,97059.25
2023-06-04T09:07:40.179Z,97063.31
2023-06-04T09:10:13.532Z,97065.56
2023-06-04T09:12:47.541Z,97070.25
2023-06-04T09:15:14.422Z,97071.53
2023-06-04T09:17:40.957Z,97080.19
2023-06-04T09:20:10.597Z,97067.69
2023-06-04T09:22:38.296Z,97071.56
2023-06-04T09:25:08.965Z,97070.63
2023-06-04T09:27:42.049Z,97067.84
2023-06-04T09:30:11.966Z,97058.25
2023-06-04T09:32:38.472Z,97069.28
2023-06-04T09:35:15.290Z,97066.91
2023-06-04T09:37:56.727Z,97072.47
2023-06-04T09:40:24.423Z,97074.34
2023-06-04T09:42:58.835Z,97062.03
2023-06-04T09:45:33.310Z,97062.69
2023-06-04T09:48:00.708Z,97055.56
2023-06-04T09:50:33.203Z,97062.06
2023-06-04T09:52:59.944Z,97053.06
2023-06-04T09:55:26.448Z,97065.38
2023-06-04T09:57:54.206Z,97059.34
2023-06-04T10:00:24.061Z,97061.84
2023-06-04T10:02:57.015Z,97057.44
2023-06-04T10:05:24.075Z,97062.31
2023-06-04T10:07:53.103Z,97066.06
2023-06-04T10:10:22.507Z,97060.72
2023-06-04T10:12:55.715Z,97058.59
2023-06-04T10:15:22.441Z,97062.53
2023-06-04T10:17:49.511Z,97065.16
2023-06-04T10:20:16.379Z,97061.41
2023-06-04T10:22:43.683Z,97051.44
2023-06-04T10:25:11.376Z,97054.69
2023-06-04T10:27:38.465Z,97066.59
2023-06-04T10:30:06.036Z,97055.88
2023-06-04T10:32:32.958Z,97064.78
2023-06-04T10:34:59.579Z,97054.56
2023-06-04T10:37:27.567Z,97048.91
2023-06-04T10:39:58.652Z,97058.13
2023-06-04T10:42:26.362Z,97051.69
2023-06-04T10:44:58.444Z,97055.69
2023-06-04T10:47:30.539Z,97050.13
2023-06-04T10:50:08.733Z,97044.94
2023-06-04T10:52:35.228Z,97044.22
2023-06-04T10:55:06.786Z,97052.31
2023-06-04T10:57:33.835Z,97049.94
2023-06-04T11:00:02.241Z,97049.00
2023-06-04T11:02:28.839Z,97046.06
2023-06-04T11:05:10.329Z,97052.78
2023-06-04T11:07:44.770Z,97041.63
2023-06-04T11:10:12.519Z,97046.16
2023-06-04T11:12:49.071Z,97048.69
2023-06-04T11:15:16.707Z,97049.66
2023-06-04T11:17:59.317Z,97048.06
2023-06-04T11:20:26.345Z,97050.53
2023-06-04T11:22:53.745Z,97040.88
2023-06-04T11:25:20.876Z,97043.81
2023-06-04T11:27:48.216Z,97044.31
2023-06-04T11:30:15.819Z,97035.88
2023-06-04T11:32:42.283Z,97036.03
2023-06-04T11:35:09.560Z,97042.28
2023-06-04T11:37:36.565Z,97041.78
2023-06-04T11:40:05.600Z,97045.56
2023-06-04T11:42:32.296Z,97052.75
2023-06-04T11:44:59.036Z,97039.03
2023-06-04T11:47:26.334Z,97047.03
2023-06-04T11:50:00.482Z,97045.59
2023-06-04T11:52:26.972Z,97044.84
2023-06-04T11:54:53.686Z,97036.38
2023-06-04T11:57:20.163Z,97035.22
2023-06-04T11:59:46.985Z,97042.56
2023-06-04T12:02:13.556Z,97035.16
2023-06-04T12:04:40.173Z,97032.16
2023-06-04T12:07:07.530Z,97033.25
2023-06-04T12:09:39.086Z,97038.72
2023-06-04T12:12:07.704Z,97037.59
2023-06-04T12:14:35.728Z,97028.09
2023-06-04T12:17:03.571Z,97026.69
2023-06-04T12:19:30.056Z,97021.47
2023-06-04T12:22:04.017Z,97024.41
2023-06-04T12:24:31.556Z,97020.44
2023-06-04T12:27:12.312Z,97024.88
2023-06-04T12:29:40.878Z,97028.50
2023-06-04T12:32:12.002Z,97028.47
2023-06-04T12:34:41.325Z,97021.00
2023-06-04T12:37:09.433Z,97025.16
2023-06-04T12:39:37.966Z,97019.56
2023-06-04T12:42:06.838Z,97020.13
2023-06-04T12:44:35.653Z,97020.53
2023-06-04T12:47:02.955Z,97010.72
2023-06-04T12:49:29.635Z,97013.72
2023-06-04T12:51:56.159Z,97016.88
2023-06-04T12:54:22.907Z,97016.28
2023-06-04T12:56:49.406Z,97023.34
2023-06-04T12:59:16.057Z,97013.63
2023-06-04T13:01:42.841Z,97013.06
2023-06-04T13:04:09.584Z,97022.84
2023-06-04T13:06:36.874Z,97015.69
2023-06-04T13:09:04.891Z,97022.13
2023-06-04T13:11:31.495Z,97010.34
2023-06-04T13:13:57.916Z,97017.00
2023-06-04T13:16:24.453Z,97016.28
2023-06-04T13:18:51.097Z,97015.72
2023-06-04T13:21:17.562Z,97013.63
2023-06-04T13:23:50.762Z,97007.31
2023-06-04T13:26:18.943Z,97009.69
2023-06-04T13:28:45.460Z,97015.94
2023-06-04T13:31:12.263Z,97014.97
2023-06-04T13:33:38.911Z,97017.00
2023-06-04T13:36:06.206Z,97011.75
2023-06-04T13:38:33.344Z,97012.91
2023-06-04T13:40:59.996Z,97008.03
2023-06-04T13:43:26.789Z,97013.59
2023-06-04T13:45:53.439Z,97008.31
2023-06-04T13:48:20.158Z,97012.56
2023-06-04T13:50:46.528Z,97002.88
2023-06-04T13:53:15.987Z,97000.31
2023-06-04T13:55:42.682Z,97008.91
2023-06-04T13:58:09.281Z,96999.19
2023-06-04T14:00:35.894Z,97003.31
2023-06-04T14:03:02.549Z,97000.91
2023-06-04T14:05:29.038Z,97003.19
2023-06-04T14:07:56.404Z,97001.28
2023-06-04T14:10:22.988Z,96995.22
2023-06-04T14:12:49.604Z,96992.09
2023-06-04T14:15:16.173Z,96996.47
2023-06-04T14:17:43.011Z,96995.91
2023-06-04T14:20:09.791Z,97001.03
2023-06-04T14:22:36.931Z,96988.59
2023-06-04T14:25:07.511Z,96991.50
2023-06-04T14:27:35.400Z,96981.13
2023-06-04T14:30:05.403Z,96992.25
2023-06-04T14:32:33.177Z,96989.44
2023-06-04T14:34:59.730Z,96984.97
2023-06-04T14:37:26.536Z,96984.47
2023-06-04T14:39:53.289Z,96979.78
2023-06-04T14:42:19.717Z,96980.94
2023-06-04T14:44:46.942Z,96979.94
2023-06-04T14:47:13.849Z,96978.50
2023-06-04T14:49:40.479Z,96970.97
2023-06-04T14:52:07.419Z,96970.78
2023-06-04T14:54:35.825Z,96973.72
2023-06-04T14:57:02.979Z,96962.47
2023-06-04T14:59:29.557Z,96965.59
2023-06-04T15:01:56.317Z,96962.41
2023-06-04T15:04:23.719Z,96960.19
2023-06-04T15:06:50.845Z,96971.25
2023-06-04T15:09:17.311Z,96961.97
2023-06-04T15:11:43.835Z,96967.56
2023-06-04T15:14:10.483Z,96964.63
2023-06-04T15:16:36.976Z,96953.88
2023-06-04T15:19:03.575Z,96960.06
2023-06-04T15:21:30.252Z,96951.59
2023-06-04T15:23:56.859Z,96947.94
2023-06-04T15:26:25.125Z,96955.19
2023-06-04T15:28:51.624Z,96945.75
2023-06-04T15:31:18.185Z,96957.03
2023-06-04T15:33:44.734Z,96952.06
2023-06-04T15:36:11.622Z,96946.63
2023-06-04T15:38:38.160Z,96955.34
2023-06-04T15:41:04.589Z,96956.75
2023-06-04T15:43:31.105Z,96949.06
2023-06-04T15:45:57.689Z,96947.19
2023-06-04T15:48:24.296Z,96944.56
2023-06-04T15:50:50.899Z,96941.56
2023-06-04T15:53:17.469Z,96933.31
2023-06-04T15:55:47.218Z,96942.97
2023-06-04T15:58:13.891Z,96933.97
2023-06-04T16:00:40.383Z,96939.66
2023-06-04T16:03:06.893Z,96936.66
2023-06-04T16:05:33.678Z,96941.75
2023-06-04T16:08:00.178Z,96942.06
2023-06-04T16:10:27.065Z,96935.09
2023-06-04T16:12:54.241Z,96933.47
2023-06-04T16:15:20.869Z,96932.59
2023-06-04T16:17:48.037Z,96929.22
2023-06-04T16:20:16.131Z,96926.28
2023-06-04T16:22:42.936Z,96934.63
2023-06-04T16:25:09.762Z,96932.69
2023-06-04T16:27:36.527Z,96928.75
2023-06-04T16:30:05.204Z,96936.00
2023-06-04T16:32:31.915Z,96926.41
2023-06-04T16:34:58.377Z,96928.47
2023-06-04T16:37:24.975Z,96932.88
2023-06-04T16:39:51.511Z,96932.13
2023-06-04T16:42:18.114Z,96934.97
2023-06-04T16:44:44.535Z,96932.50
2023-06-04T16:47:11.142Z,96933.84
2023-06-04T16:49:37.611Z,96931.63
2023-06-04T16:52:05.343Z,96929.41
2023-06-04T16:54:31.837Z,96929.22
2023-06-04T16:56:59.469Z,96926.78
2023-06-04T16:59:31.290Z,96930.75
2023-06-04T17:01:58.346Z,96930.72
2023-06-04T17:04:25.086Z,96930.00
2023-06-04T17:06:51.555Z,96925.03
2023-06-04T17:09:18.090Z,96921.91
2023-06-04T17:11:44.819Z,96922.34
2023-06-04T17:14:11.362Z,96917.44
2023-06-04T17:16:37.919Z,96910.59
2023-06-04T17:19:05.993Z,96917.22
2023-06-04T17:21:32.536Z,96923.19
2023-06-04T17:23:59.212Z,96917.38
2023-06-04T17:26:27.968Z,96921.81
2023-06-04T17:28:54.523Z,96912.66
2023-06-04T17:31:21.034Z,96921.66
2023-06-04T17:33:47.614Z,96916.00
2023-06-04T17:36:14.265Z,96928.34
2023-06-04T17:38:43.122Z,96922.03
2023-06-04T17:41:09.580Z,96931.81
2023-06-04T17:43:37.091Z,96924.16
2023-06-04T17:46:03.698Z,96930.38
2023-06-04T17:48:30.317Z,96933.63
2023-06-04T17:50:56.823Z,96933.69
2023-06-04T17:53:24.560Z,96927.88
2023-06-04T17:55:51.933Z,96926.53
2023-06-04T17:58:18.517Z,96926.16
2023-06-04T18:00:45.160Z,96927.53
2023-06-04T18:03:12.581Z,96931.09
2023-06-04T18:05:39.104Z,96934.38
2023-06-04T18:08:05.655Z,96932.03
2023-06-04T18:10:32.522Z,96930.84
2023-06-04T18:12:58.960Z,96934.25
2023-06-04T18:15:25.566Z,96928.63
2023-06-04T18:17:52.403Z,96935.25
2023-06-04T18:20:18.915Z,96938.50
2023-06-04T18:22:45.617Z,96939.50
2023-06-04T18:25:12.208Z,96944.63
2023-06-04T18:27:38.878Z,96949.06
2023-06-04T18:30:06.227Z,96954.31
2023-06-04T18:32:32.756Z,96950.88
2023-06-04T18:34:59.664Z,96944.53
2023-06-04T18:37:26.217Z,96944.88
2023-06-04T18:39:53.197Z,96938.38
2023-06-04T18:42:30.123Z,96939.22
2023-06-04T18:44:58.507Z,96944.44
2023-06-04T18:47:25.340Z,96942.88
2023-06-04T18:49:52.053Z,96941.47
2023-06-04T18:52:18.481Z,96939.25
2023-06-04T18:54:45.819Z,96942.47
2023-06-04T18:57:14.485Z,96935.66
2023-06-04T18:59:41.787Z,96935.50
2023-06-04T19:02:08.379Z,96942.13
2023-06-04T19:04:34.841Z,96938.66
2023-06-04T19:07:03.524Z,96947.47
2023-06-04T19:09:30.089Z,96945.28
2023-06-04T19:11:56.638Z,96950.16
2023-06-04T19:14:23.076Z,96943.69
2023-06-04T19:16:51.931Z,96944.81
2023-06-04T19:19:22.380Z,96956.97
2023-06-04T19:21:53.315Z,96951.91
2023-06-04T19:24:21.826Z,96954.72
2023-06-04T19:26:49.910Z,96955.97
2023-06-04T19:29:16.450Z,96959.91
2023-06-04T19:31:43.189Z,96963.47
2023-06-04T19:34:09.736Z,96973.91
2023-06-04T19:36:36.419Z,96974.50
2023-06-04T19:39:03.227Z,96970.88
2023-06-04T19:41:29.745Z,96978.72
2023-06-04T19:43:56.189Z,96976.38
2023-06-04T19:46:22.724Z,96978.22
2023-06-04T19:48:49.349Z,96973.63
2023-06-04T19:51:15.871Z,96981.53
2023-06-04T19:53:42.343Z,96980.09
2023-06-04T19:56:09.060Z,96991.41
2023-06-04T19:58:35.854Z,96986.69
2023-06-04T20:01:02.473Z,96985.72
2023-06-04T20:03:31.529Z,96994.50
2023-06-04T20:05:58.203Z,96998.13
2023-06-04T20:08:24.673Z,97002.69
2023-06-04T20:10:51.672Z,97003.47
2023-06-04T20:13:18.231Z,97007.88
2023-06-04T20:15:44.762Z,97008.28
2023-06-04T20:18:11.262Z,97003.03
2023-06-04T20:20:37.780Z,97007.53
2023-06-04T20:23:04.213Z,97006.41
2023-06-04T20:25:33.970Z,97006.25
2023-06-04T20:28:00.538Z,97010.44
2023-06-04T20:30:27.137Z,97009.09
2023-06-04T20:32:56.643Z,97006.31
2023-06-04T20:35:23.439Z,97012.06
2023-06-04T20:37:50.118Z,97006.91
2023-06-04T20:40:16.963Z,97009.91
2023-06-04T20:42:43.421Z,97011.78
2023-06-04T20:45:10.028Z,97010.72
2023-06-04T20:47:36.527Z,97012.88
2023-06-04T20:50:03.367Z,97009.69
2023-06-04T20:52:29.819Z,97007.94
2023-06-04T20:54:56.233Z,97007.13
2023-06-04T20:57:22.719Z,97012.00
2023-06-04T20:59:49.206Z,97011.50
2023-06-04T21:02:15.783Z,97014.69
2023-06-04T21:04:42.348Z,97014.97
2023-06-04T21:07:08.792Z,97014.78
2023-06-04T21:09:35.436Z,97012.69
2023-06-04T21:12:01.875Z,97017.25
2023-06-04T21:14:28.284Z,97013.28
2023-06-04T21:16:54.740Z,97017.09
2023-06-04T21:19:21.238Z,97019.88
2023-06-04T21:21:47.691Z,97022.84
2023-06-04T21:24:15.189Z,97022.63
2023-06-04T21:26:41.699Z,97024.53
2023-06-04T21:29:08.211Z,97016.56
2023-06-04T21:31:34.706Z,97019.66
2023-06-04T21:34:01.134Z,97015.28
2023-06-04T21:36:27.659Z,97023.22
2023-06-04T21:38:54.117Z,97018.41
2023-06-04T21:41:21.490Z,97018.88
2023-06-04T21:43:47.991Z,97015.97
2023-06-04T21:46:15.379Z,97015.94
2023-06-04T21:48:44.499Z,97008.16
2023-06-04T21:51:11.187Z,97017.03
2023-06-04T21:53:37.594Z,97024.41
2023-06-04T21:56:04.512Z,97022.84
2023-06-04T21:58:31.025Z,97025.06
2023-06-04T22:00:57.521Z,97029.53
2023-06-04T22:03:24.576Z,97040.84
2023-06-04T22:05:51.311Z,97034.56
2023-06-04T22:08:18.012Z,97029.31
2023-06-04T22:10:44.566Z,97030.56
2023-06-04T22:13:11.136Z,97032.81
2023-06-04T22:15:37.762Z,97024.41
2023-06-04T22:18:04.714Z,97029.50
2023-06-04T22:20:31.282Z,97021.34
2023-06-04T22:22:57.747Z,97022.97
2023-06-04T22:25:24.153Z,97020.63
2023-06-04T22:27:51.009Z,97033.22
2023-06-04T22:30:17.574Z,97037.56
2023-06-04T22:32:44.093Z,97038.19
2023-06-04T22:35:10.609Z,97034.56
2023-06-04T22:37:37.131Z,97032.47
2023-06-04T22:40:04.290Z,97034.06
2023-06-04T22:42:30.731Z,97026.13
2023-06-04T22:44:57.212Z,97035.75
2023-06-04T22:47:23.816Z,97035.78
2023-06-04T22:49:50.304Z,97032.69
2023-06-04T22:52:16.718Z,97027.91
2023-06-04T22:54:43.259Z,97029.25
2023-06-04T22:57:09.704Z,97031.13
2023-06-04T22:59:36.242Z,97034.31
2023-06-04T23:02:02.877Z,97031.69
2023-06-04T23:04:29.533Z,97025.84
2023-06-04T23:06:56.000Z,97029.56
2023-06-04T23:09:22.502Z,97027.97
2023-06-04T23:11:48.970Z,97023.72
2023-06-04T23:14:15.506Z,97028.03
2023-06-04T23:16:42.680Z,97023.84
2023-06-04T23:19:10.859Z,97018.00
2023-06-04T23:21:40.230Z,97015.88
2023-06-04T23:24:08.442Z,97014.28
2023-06-04T23:26:35.461Z,97019.06
2023-06-04T23:29:02.702Z,97020.13
2023-06-04T23:31:29.353Z,97014.84
2023-06-04T23:33:55.998Z,97021.81
2023-06-04T23:36:22.514Z,97013.81
2023-06-04T23:38:49.082Z,97008.28
2023-06-04T23:41:16.266Z,97008.03
2023-06-04T23:43:43.057Z,97005.91
2023-06-04T23:46:09.573Z,97018.16
2023-06-04T23:48:36.013Z,97016.03
2023-06-04T23:51:02.454Z,97012.84
2023-06-04T23:53:28.967Z,97009.66
2023-06-04T23:55:55.542Z,97011.53
2023-06-04T23:58:22.020Z,97012.88
